Ms Folla 2 — LLPD — position and weather

sailwx.info

Track history (hours):
 
Tides and Currents Weather Stations Pressure Air Temp Water Temp Dewpoint Dewpoint Depression Visibility Wind Speed Wind Dir Waves Ship Positions

Ms Folla 2

Last reported at 2017-Jan-19 18:33 UTC. Time now 2017-Jan-19 19:17 UTC.
Position N 65°11' E 011°51'.

Length 52 m; draft 5.5 m.

Type: Cargo ship. MMSI: 258253000.

Date/timePositionNaut miles runAvg speedWind from/ knotsBaromVisibWave heightAir tempDewpointWater temp
2017-Jan-19 18:33N 65°11' E 011°51'1110.9
2017-Jan-19 17:33N 65°01' E 011°41'1111.0
2017-Jan-19 16:33N 64°54' E 011°21'6 6.3
2017-Jan-19 15:33N 64°50' E 011°10'9 8.7
2017-Jan-19 14:33N 64°41' E 011°06'6 0.3
2017-Jan-18 15:11N 64°37' E 011°16'6 9.5
2017-Jan-18 14:33N 64°41' E 011°06'8 7.9
2017-Jan-18 13:33N 64°49' E 011°08'5 4.5
2017-Jan-18 12:33N 64°52' E 011°17'0 0.0
2017-Jan-18 11:33N 64°52' E 011°17'0 0.0
2017-Jan-18 10:33N 64°52' E 011°17'0 0.0
2017-Jan-18 09:33N 64°52' E 011°17'0 0.0
2017-Jan-18 08:33N 64°52' E 011°17'0 0.0
2017-Jan-18 07:33N 64°52' E 011°17'0 0.0
2017-Jan-18 06:33N 64°52' E 011°17'0 0.0
2017-Jan-18 05:33N 64°52' E 011°17'0 0.0
2017-Jan-18 04:33N 64°52' E 011°17'0 0.0
2017-Jan-18 03:33N 64°52' E 011°17'0 0.0
2017-Jan-18 02:33N 64°52' E 011°17'0 0.0
2017-Jan-18 01:33N 64°52' E 011°17'0 0.0
2017-Jan-18 00:33N 64°52' E 011°17'0 0.0
2017-Jan-17 23:33N 64°52' E 011°17'0 0.0
2017-Jan-17 22:33N 64°52' E 011°17'0 0.0
2017-Jan-17 21:33N 64°52' E 011°17'0 0.0
2017-Jan-17 20:33N 64°52' E 011°17'0 0.0
2017-Jan-17 19:33N 64°52' E 011°17'0 0.0
2017-Jan-17 18:33N 64°52' E 011°17'0 0.0
2017-Jan-17 17:33N 64°52' E 011°17'0 0.0
2017-Jan-17 16:33N 64°52' E 011°17'0 0.0
2017-Jan-17 15:33N 64°52' E 011°17'0 0.0
2017-Jan-17 14:33N 64°52' E 011°17'0 0.0
2017-Jan-17 13:33N 64°52' E 011°17'0 0.0
2017-Jan-17 12:33N 64°52' E 011°17'0 0.0
2017-Jan-17 11:33N 64°52' E 011°17'1 1.2
2017-Jan-17 10:33N 64°52' E 011°15'5 5.4
2017-Jan-17 09:33N 64°55' E 011°24'1010.2
2017-Jan-17 08:33N 65°02' E 011°42'1110.7
2017-Jan-17 07:33N 65°12' E 011°53'5110.0
2017-Jan-17 02:25N 66°00' E 012°32'8 9.6
2017-Jan-17 01:33N 66°07' E 012°45'10 9.5
2017-Jan-17 00:28N 66°17' E 012°55'9 9.9
2017-Jan-16 23:33N 66°25' E 012°58'10 9.1
2017-Jan-16 22:25N 66°36' E 013°04'20 9.1
2017-Jan-16 20:16N 66°53' E 013°25'6 8.8
2017-Jan-16 19:33N 66°59' E 013°34'10 9.8
2017-Jan-16 18:32N 67°04' E 013°54'1010.3
2017-Jan-16 17:33N 67°13' E 014°08'1110.5
2017-Jan-16 16:33N 67°22' E 014°23'10 9.4
2017-Jan-16 15:31N 67°32' E 014°19'91 4.3
2017-Jan-15 18:33N 68°44' E 016°44'1510.7
2017-Jan-15 17:11N 68°56' E 017°07'711.1
2017-Jan-15 16:32N 69°02' E 017°18'1010.6
2017-Jan-15 15:33N 69°08' E 017°43'9 8.6
2017-Jan-15 14:33N 69°15' E 017°58'10 0.4
2017-Jan-14 13:15N 69°24' E 018°07'710.6
2017-Jan-14 12:33N 69°18' E 017°58'4 3.6
2017-Jan-14 11:26N 69°14' E 017°59'8 8.9
2017-Jan-14 10:33N 69°08' E 017°43'1311.1
2017-Jan-14 09:25N 69°01' E 017°15'110 6.1
2017-Jan-13 15:33N 67°30' E 014°29'1111.0
2017-Jan-13 14:33N 67°19' E 014°23'5 4.8
2017-Jan-13 13:33N 67°15' E 014°16'1111.1
2017-Jan-13 12:32N 67°06' E 014°00'2 1.9
2017-Jan-13 11:33N 67°04' E 014°04'2 0.9
2017-Jan-13 09:33N 67°04' E 013°59'1111.0
2017-Jan-13 08:32N 66°58' E 013°35'10 8.9
2017-Jan-13 07:22N 66°48' E 013°29'9 2.3
2017-Jan-13 03:20N 66°42' E 013°11'911.2
2017-Jan-13 02:33N 66°34' E 013°04'1010.5
2017-Jan-13 01:33N 66°24' E 012°58'1211.3
2017-Jan-13 00:31N 66°12' E 012°52'52 9.9
2017-Jan-12 19:13N 65°23' E 012°07'711.3
2017-Jan-12 18:33N 65°17' E 011°58'1111.4
2017-Jan-12 17:33N 65°06' E 011°48'1111.0
2017-Jan-12 16:33N 64°58' E 011°32'1110.5
2017-Jan-12 15:33N 64°51' E 011°13'1010.1
2017-Jan-12 14:33N 64°41' E 011°07'10 0.5
2017-Jan-11 18:31N 64°33' E 011°21'1010.0
2017-Jan-11 17:33N 64°43' E 011°24'2 1.7
2017-Jan-11 16:33N 64°43' E 011°28'8 8.1
2017-Jan-11 15:33N 64°43' E 011°09'9 8.6
2017-Jan-11 14:33N 64°51' E 011°14'1 0.5
2017-Jan-11 13:33N 64°52' E 011°15'1 1.0
2017-Jan-11 12:33N 64°52' E 011°17'0 0.1
2017-Jan-11 11:33N 64°52' E 011°17'0 0.0
2017-Jan-11 10:33N 64°52' E 011°17'0 0.0
2017-Jan-11 09:33N 64°52' E 011°17'0 0.0
2017-Jan-11 08:33N 64°52' E 011°17'0 0.0
2017-Jan-11 07:33N 64°52' E 011°17'0 0.0
2017-Jan-11 06:33N 64°52' E 011°17'0 0.0
2017-Jan-11 05:33N 64°52' E 011°17'0 0.0
2017-Jan-11 04:33N 64°52' E 011°17'0 0.0
2017-Jan-11 03:33N 64°52' E 011°17'0 0.0
2017-Jan-11 02:33N 64°52' E 011°17'0 0.0
2017-Jan-11 01:33N 64°52' E 011°17'0 0.0
2017-Jan-11 00:33N 64°52' E 011°17'0 0.0
2017-Jan-10 23:33N 64°52' E 011°17'0 0.0
2017-Jan-10 22:33N 64°52' E 011°17'0 0.0
2017-Jan-10 21:33N 64°52' E 011°17'0 0.0
2017-Jan-10 20:33N 64°52' E 011°17'0 0.0
2017-Jan-10 19:33N 64°52' E 011°17'0 0.0
2017-Jan-10 18:33N 64°52' E 011°17'0 0.0
2017-Jan-10 17:33N 64°52' E 011°17'0 0.0
2017-Jan-10 16:33N 64°52' E 011°17'0 0.0
2017-Jan-10 15:33N 64°52' E 011°17'0 0.0
2017-Jan-10 14:33N 64°52' E 011°17'0 0.0
2017-Jan-10 13:33N 64°52' E 011°17'1 0.9
2017-Jan-10 12:33N 64°52' E 011°17'5 5.5
2017-Jan-10 11:33N 64°56' E 011°27'6 6.0
2017-Jan-10 10:33N 64°52' E 011°17'0 0.0
2017-Jan-10 09:33N 64°52' E 011°17'0 0.0
2017-Jan-10 08:33N 64°52' E 011°17'0 0.0
2017-Jan-10 07:33N 64°52' E 011°17'0 0.0
2017-Jan-10 06:33N 64°52' E 011°17'0 0.0
2017-Jan-10 05:33N 64°52' E 011°17'0 0.0
2017-Jan-10 04:33N 64°52' E 011°17'0 0.0
2017-Jan-10 03:33N 64°52' E 011°17'0 0.0
2017-Jan-10 02:33N 64°52' E 011°17'0 0.0
2017-Jan-10 01:33N 64°52' E 011°17'0 0.0
2017-Jan-10 00:33N 64°52' E 011°17'0 0.0
2017-Jan-09 23:33N 64°52' E 011°17'0 0.0
2017-Jan-09 22:33N 64°52' E 011°17'0 0.0
2017-Jan-09 21:33N 64°52' E 011°17'0 0.0
2017-Jan-09 20:33N 64°52' E 011°17'0 0.0
2017-Jan-09 19:33N 64°52' E 011°17'0 0.0
2017-Jan-09 18:33N 64°52' E 011°17'  
Track history (hours):
 
Tides and Currents Weather Stations Pressure Air Temp Water Temp Dewpoint Dewpoint Depression Visibility Wind Speed Wind Dir Waves Ship Positions

Ms Folla 2

Last reported at 2017-Jan-19 18:33 UTC. Time now 2017-Jan-19 19:17 UTC.
Position N 65°11' E 011°51'.

Length 52 m; draft 5.5 m.

Type: Cargo ship. MMSI: 258253000.

Date/timePositionNaut miles runAvg speedWind from/ knotsBaromVisibWave heightAir tempDewpointWater temp
2017-Jan-19 18:33N 65°11' E 011°51'1110.9
2017-Jan-19 17:33N 65°01' E 011°41'1111.0
2017-Jan-19 16:33N 64°54' E 011°21'6 6.3
2017-Jan-19 15:33N 64°50' E 011°10'9 8.7
2017-Jan-19 14:33N 64°41' E 011°06'6 0.3
2017-Jan-18 15:11N 64°37' E 011°16'6 9.5
2017-Jan-18 14:33N 64°41' E 011°06'8 7.9
2017-Jan-18 13:33N 64°49' E 011°08'5 4.5
2017-Jan-18 12:33N 64°52' E 011°17'0 0.0
2017-Jan-18 11:33N 64°52' E 011°17'0 0.0
2017-Jan-18 10:33N 64°52' E 011°17'0 0.0
2017-Jan-18 09:33N 64°52' E 011°17'0 0.0
2017-Jan-18 08:33N 64°52' E 011°17'0 0.0
2017-Jan-18 07:33N 64°52' E 011°17'0 0.0
2017-Jan-18 06:33N 64°52' E 011°17'0 0.0
2017-Jan-18 05:33N 64°52' E 011°17'0 0.0
2017-Jan-18 04:33N 64°52' E 011°17'0 0.0
2017-Jan-18 03:33N 64°52' E 011°17'0 0.0
2017-Jan-18 02:33N 64°52' E 011°17'0 0.0
2017-Jan-18 01:33N 64°52' E 011°17'0 0.0
2017-Jan-18 00:33N 64°52' E 011°17'0 0.0
2017-Jan-17 23:33N 64°52' E 011°17'0 0.0
2017-Jan-17 22:33N 64°52' E 011°17'0 0.0
2017-Jan-17 21:33N 64°52' E 011°17'0 0.0
2017-Jan-17 20:33N 64°52' E 011°17'0 0.0
2017-Jan-17 19:33N 64°52' E 011°17'0 0.0
2017-Jan-17 18:33N 64°52' E 011°17'0 0.0
2017-Jan-17 17:33N 64°52' E 011°17'0 0.0
2017-Jan-17 16:33N 64°52' E 011°17'0 0.0
2017-Jan-17 15:33N 64°52' E 011°17'0 0.0
2017-Jan-17 14:33N 64°52' E 011°17'0 0.0
2017-Jan-17 13:33N 64°52' E 011°17'0 0.0
2017-Jan-17 12:33N 64°52' E 011°17'0 0.0
2017-Jan-17 11:33N 64°52' E 011°17'1 1.2
2017-Jan-17 10:33N 64°52' E 011°15'5 5.4
2017-Jan-17 09:33N 64°55' E 011°24'1010.2
2017-Jan-17 08:33N 65°02' E 011°42'1110.7
2017-Jan-17 07:33N 65°12' E 011°53'5110.0
2017-Jan-17 02:25N 66°00' E 012°32'8 9.6
2017-Jan-17 01:33N 66°07' E 012°45'10 9.5
2017-Jan-17 00:28N 66°17' E 012°55'9 9.9
2017-Jan-16 23:33N 66°25' E 012°58'10 9.1
2017-Jan-16 22:25N 66°36' E 013°04'20 9.1
2017-Jan-16 20:16N 66°53' E 013°25'6 8.8
2017-Jan-16 19:33N 66°59' E 013°34'10 9.8
2017-Jan-16 18:32N 67°04' E 013°54'1010.3
2017-Jan-16 17:33N 67°13' E 014°08'1110.5
2017-Jan-16 16:33N 67°22' E 014°23'10 9.4
2017-Jan-16 15:31N 67°32' E 014°19'91 4.3
2017-Jan-15 18:33N 68°44' E 016°44'1510.7
2017-Jan-15 17:11N 68°56' E 017°07'711.1
2017-Jan-15 16:32N 69°02' E 017°18'1010.6
2017-Jan-15 15:33N 69°08' E 017°43'9 8.6
2017-Jan-15 14:33N 69°15' E 017°58'10 0.4
2017-Jan-14 13:15N 69°24' E 018°07'710.6
2017-Jan-14 12:33N 69°18' E 017°58'4 3.6
2017-Jan-14 11:26N 69°14' E 017°59'8 8.9
2017-Jan-14 10:33N 69°08' E 017°43'1311.1
2017-Jan-14 09:25N 69°01' E 017°15'110 6.1
2017-Jan-13 15:33N 67°30' E 014°29'1111.0
2017-Jan-13 14:33N 67°19' E 014°23'5 4.8
2017-Jan-13 13:33N 67°15' E 014°16'1111.1
2017-Jan-13 12:32N 67°06' E 014°00'2 1.9
2017-Jan-13 11:33N 67°04' E 014°04'2 0.9
2017-Jan-13 09:33N 67°04' E 013°59'1111.0
2017-Jan-13 08:32N 66°58' E 013°35'10 8.9
2017-Jan-13 07:22N 66°48' E 013°29'9 2.3
2017-Jan-13 03:20N 66°42' E 013°11'911.2
2017-Jan-13 02:33N 66°34' E 013°04'1010.5
2017-Jan-13 01:33N 66°24' E 012°58'1211.3
2017-Jan-13 00:31N 66°12' E 012°52'52 9.9
2017-Jan-12 19:13N 65°23' E 012°07'711.3
2017-Jan-12 18:33N 65°17' E 011°58'1111.4
2017-Jan-12 17:33N 65°06' E 011°48'1111.0
2017-Jan-12 16:33N 64°58' E 011°32'1110.5
2017-Jan-12 15:33N 64°51' E 011°13'1010.1
2017-Jan-12 14:33N 64°41' E 011°07'10 0.5
2017-Jan-11 18:31N 64°33' E 011°21'1010.0
2017-Jan-11 17:33N 64°43' E 011°24'2 1.7
2017-Jan-11 16:33N 64°43' E 011°28'8 8.1
2017-Jan-11 15:33N 64°43' E 011°09'9 8.6
2017-Jan-11 14:33N 64°51' E 011°14'1 0.5
2017-Jan-11 13:33N 64°52' E 011°15'1 1.0
2017-Jan-11 12:33N 64°52' E 011°17'0 0.1
2017-Jan-11 11:33N 64°52' E 011°17'0 0.0
2017-Jan-11 10:33N 64°52' E 011°17'0 0.0
2017-Jan-11 09:33N 64°52' E 011°17'0 0.0
2017-Jan-11 08:33N 64°52' E 011°17'0 0.0
2017-Jan-11 07:33N 64°52' E 011°17'0 0.0
2017-Jan-11 06:33N 64°52' E 011°17'0 0.0
2017-Jan-11 05:33N 64°52' E 011°17'0 0.0
2017-Jan-11 04:33N 64°52' E 011°17'0 0.0
2017-Jan-11 03:33N 64°52' E 011°17'0 0.0
2017-Jan-11 02:33N 64°52' E 011°17'0 0.0
2017-Jan-11 01:33N 64°52' E 011°17'0 0.0
2017-Jan-11 00:33N 64°52' E 011°17'0 0.0
2017-Jan-10 23:33N 64°52' E 011°17'0 0.0
2017-Jan-10 22:33N 64°52' E 011°17'0 0.0
2017-Jan-10 21:33N 64°52' E 011°17'0 0.0
2017-Jan-10 20:33N 64°52' E 011°17'0 0.0
2017-Jan-10 19:33N 64°52' E 011°17'0 0.0
2017-Jan-10 18:33N 64°52' E 011°17'0 0.0
2017-Jan-10 17:33N 64°52' E 011°17'0 0.0
2017-Jan-10 16:33N 64°52' E 011°17'0 0.0
2017-Jan-10 15:33N 64°52' E 011°17'0 0.0
2017-Jan-10 14:33N 64°52' E 011°17'0 0.0
2017-Jan-10 13:33N 64°52' E 011°17'1 0.9
2017-Jan-10 12:33N 64°52' E 011°17'5 5.5
2017-Jan-10 11:33N 64°56' E 011°27'6 6.0
2017-Jan-10 10:33N 64°52' E 011°17'0 0.0
2017-Jan-10 09:33N 64°52' E 011°17'0 0.0
2017-Jan-10 08:33N 64°52' E 011°17'0 0.0
2017-Jan-10 07:33N 64°52' E 011°17'0 0.0
2017-Jan-10 06:33N 64°52' E 011°17'0 0.0
2017-Jan-10 05:33N 64°52' E 011°17'0 0.0
2017-Jan-10 04:33N 64°52' E 011°17'0 0.0
2017-Jan-10 03:33N 64°52' E 011°17'0 0.0
2017-Jan-10 02:33N 64°52' E 011°17'0 0.0
2017-Jan-10 01:33N 64°52' E 011°17'0 0.0
2017-Jan-10 00:33N 64°52' E 011°17'0 0.0
2017-Jan-09 23:33N 64°52' E 011°17'0 0.0
2017-Jan-09 22:33N 64°52' E 011°17'0 0.0
2017-Jan-09 21:33N 64°52' E 011°17'0 0.0
2017-Jan-09 20:33N 64°52' E 011°17'0 0.0
2017-Jan-09 19:33N 64°52' E 011°17'0 0.0
2017-Jan-09 18:33N 64°52' E 011°17'  

Dump ship's entire track history